createdAt,value
2022-09-25T00:01:21.646Z,84.40
2022-09-25T00:03:49.542Z,84.60
2022-09-25T00:06:19.565Z,84.50
2022-09-25T00:08:48.031Z,84.70
2022-09-25T00:11:17.983Z,81.30
2022-09-25T00:13:47.172Z,84.40
2022-09-25T00:16:17.207Z,84.70
2022-09-25T00:19:04.004Z,84.70
2022-09-25T00:21:32.804Z,84.60
2022-09-25T00:24:01.427Z,84.50
2022-09-25T00:26:30.794Z,84.50
2022-09-25T00:29:01.395Z,84.50
2022-09-25T00:31:30.319Z,84.50
2022-09-25T00:34:00.873Z,84.50
2022-09-25T00:36:29.203Z,84.60
2022-09-25T00:38:57.019Z,85.30
2022-09-25T00:41:26.788Z,84.50
2022-09-25T00:43:56.592Z,84.70
2022-09-25T00:46:29.795Z,84.60
2022-09-25T00:49:03.474Z,84.70
2022-09-25T00:51:38.431Z,84.60
2022-09-25T00:54:09.040Z,84.90
2022-09-25T00:56:40.702Z,84.70
2022-09-25T00:59:12.027Z,84.70
2022-09-25T01:01:40.003Z,84.70
2022-09-25T01:04:13.072Z,84.40
2022-09-25T01:06:41.872Z,84.40
2022-09-25T01:09:09.869Z,84.40
2022-09-25T01:11:37.732Z,84.30
2022-09-25T01:14:08.538Z,84.30
2022-09-25T01:16:40.891Z,84.50
2022-09-25T01:19:27.245Z,84.40
2022-09-25T01:22:04.039Z,84.70
2022-09-25T01:24:43.987Z,84.50
2022-09-25T01:27:31.596Z,84.50
2022-09-25T01:30:07.047Z,84.70
2022-09-25T01:32:43.773Z,86.90
2022-09-25T01:35:22.109Z,84.50
2022-09-25T01:37:55.788Z,86.50
2022-09-25T01:40:28.714Z,85.00
2022-09-25T01:43:02.654Z,84.60
2022-09-25T01:45:35.628Z,84.50
2022-09-25T01:48:07.194Z,84.50
2022-09-25T01:50:42.228Z,84.40
2022-09-25T01:53:16.601Z,84.70
2022-09-25T01:55:49.240Z,84.70
2022-09-25T01:58:21.651Z,84.70
2022-09-25T02:00:55.424Z,85.40
2022-09-25T02:03:27.304Z,84.70
2022-09-25T02:05:58.754Z,84.50
2022-09-25T02:08:31.923Z,84.80
2022-09-25T02:11:03.588Z,84.70
2022-09-25T02:13:38.247Z,84.60
2022-09-25T02:16:13.474Z,83.20
2022-09-25T02:18:59.105Z,84.50
2022-09-25T02:21:33.559Z,84.50
2022-09-25T02:24:11.128Z,84.50
2022-09-25T02:26:39.052Z,84.40
2022-09-25T02:29:08.047Z,84.20
2022-09-25T02:31:40.418Z,84.50
2022-09-25T02:34:14.555Z,84.50
2022-09-25T02:36:44.612Z,84.10
2022-09-25T02:39:16.339Z,84.30
2022-09-25T02:42:19.421Z,84.40
2022-09-25T02:45:00.717Z,85.20
2022-09-25T02:47:35.951Z,84.40
2022-09-25T02:50:10.703Z,84.30
2022-09-25T02:52:47.452Z,85.90
2022-09-25T02:55:22.575Z,84.30
2022-09-25T02:57:56.543Z,84.30
2022-09-25T03:00:24.465Z,84.10
2022-09-25T03:02:57.395Z,83.90
2022-09-25T03:05:26.028Z,83.80
2022-09-25T03:08:12.404Z,83.90
2022-09-25T03:10:41.184Z,84.20
2022-09-25T03:13:22.156Z,84.00
2022-09-25T03:15:58.848Z,84.30
2022-09-25T03:18:28.947Z,84.20
2022-09-25T03:20:56.864Z,84.20
2022-09-25T03:23:25.029Z,84.10
2022-09-25T03:25:55.067Z,84.00
2022-09-25T03:28:23.759Z,84.30
2022-09-25T03:31:00.165Z,84.10
2022-09-25T03:33:30.940Z,84.20
2022-09-25T03:36:03.947Z,84.00
2022-09-25T03:38:31.760Z,84.00
2022-09-25T03:40:59.794Z,83.70
2022-09-25T03:43:27.902Z,83.60
2022-09-25T03:45:55.814Z,83.70
2022-09-25T03:48:23.746Z,83.60
2022-09-25T03:50:53.230Z,83.40
2022-09-25T03:53:21.096Z,83.50
2022-09-25T03:55:48.925Z,83.60
2022-09-25T03:58:17.406Z,83.50
2022-09-25T04:00:47.116Z,83.70
2022-09-25T04:03:15.151Z,83.80
2022-09-25T04:05:43.616Z,83.60
2022-09-25T04:08:13.044Z,83.80
2022-09-25T04:10:41.061Z,83.60
2022-09-25T04:13:12.643Z,83.60
2022-09-25T04:15:40.807Z,83.90
2022-09-25T04:18:09.102Z,84.00
2022-09-25T04:20:38.471Z,84.20
2022-09-25T04:23:06.367Z,84.00
2022-09-25T04:25:35.594Z,83.90
2022-09-25T04:28:05.215Z,84.20
2022-09-25T04:30:33.096Z,84.20
2022-09-25T04:33:18.699Z,84.30
2022-09-25T04:35:46.554Z,84.40
2022-09-25T04:38:14.470Z,84.30
2022-09-25T04:40:45.803Z,83.40
2022-09-25T04:43:13.786Z,84.20
2022-09-25T04:45:41.778Z,84.00
2022-09-25T04:48:09.631Z,84.00
2022-09-25T04:50:37.467Z,84.00
2022-09-25T04:53:05.809Z,84.00
2022-09-25T04:55:33.801Z,83.80
2022-09-25T04:58:02.943Z,83.80
2022-09-25T05:00:33.174Z,84.00
2022-09-25T05:03:03.953Z,84.20
2022-09-25T05:05:32.092Z,84.20
2022-09-25T05:08:01.484Z,83.90
2022-09-25T05:10:32.443Z,84.20
2022-09-25T05:13:03.268Z,84.40
2022-09-25T05:15:33.263Z,84.40
2022-09-25T05:18:02.136Z,84.30
2022-09-25T05:20:30.212Z,84.30
2022-09-25T05:22:58.615Z,84.00
2022-09-25T05:25:27.933Z,84.00
2022-09-25T05:27:58.523Z,84.40
2022-09-25T05:30:29.144Z,85.10
2022-09-25T05:32:59.099Z,84.20
2022-09-25T05:35:28.849Z,84.30
2022-09-25T05:37:56.771Z,84.30
2022-09-25T05:40:25.154Z,84.20
2022-09-25T05:42:55.081Z,84.20
2022-09-25T05:45:24.185Z,84.20
2022-09-25T05:48:02.884Z,84.30
2022-09-25T05:50:32.493Z,84.40
2022-09-25T05:53:01.420Z,85.70
2022-09-25T05:55:29.821Z,87.00
2022-09-25T05:58:01.583Z,83.10
2022-09-25T06:00:32.459Z,84.40
2022-09-25T06:03:01.916Z,83.80
2022-09-25T06:05:29.931Z,85.10
2022-09-25T06:07:58.003Z,84.30
2022-09-25T06:10:26.811Z,84.30
2022-09-25T06:13:00.039Z,84.60
2022-09-25T06:15:28.433Z,85.50
2022-09-25T06:17:56.778Z,85.00
2022-09-25T06:20:26.032Z,85.10
2022-09-25T06:22:54.601Z,85.00
2022-09-25T06:25:23.864Z,85.30
2022-09-25T06:27:54.524Z,85.60
2022-09-25T06:30:23.016Z,85.90
2022-09-25T06:32:57.097Z,85.90
2022-09-25T06:35:26.644Z,86.90
2022-09-25T06:37:57.935Z,86.10
2022-09-25T06:40:27.923Z,86.60
2022-09-25T06:42:57.196Z,86.60
2022-09-25T06:45:26.656Z,86.80
2022-09-25T06:47:57.790Z,86.80
2022-09-25T06:50:31.604Z,86.90
2022-09-25T06:53:00.190Z,87.30
2022-09-25T06:55:28.561Z,87.50
2022-09-25T06:57:56.345Z,87.50
2022-09-25T07:00:24.286Z,87.60
2022-09-25T07:03:10.200Z,88.00
2022-09-25T07:05:39.487Z,88.80
2022-09-25T07:08:07.420Z,89.00
2022-09-25T07:10:36.524Z,89.70
2022-09-25T07:13:04.722Z,90.30
2022-09-25T07:15:32.601Z,90.40
2022-09-25T07:18:00.603Z,90.80
2022-09-25T07:20:28.577Z,91.60
2022-09-25T07:23:03.871Z,91.20
2022-09-25T07:25:32.166Z,91.40
2022-09-25T07:28:00.319Z,91.70
2022-09-25T07:30:29.427Z,91.80
2022-09-25T07:33:00.185Z,92.10
2022-09-25T07:35:28.315Z,92.50
2022-09-25T07:37:57.389Z,92.40
2022-09-25T07:40:28.818Z,92.50
2022-09-25T07:43:00.755Z,92.70
2022-09-25T07:45:29.319Z,93.30
2022-09-25T07:47:57.869Z,92.80
2022-09-25T07:50:25.788Z,92.80
2022-09-25T07:52:54.408Z,92.90
2022-09-25T07:55:23.089Z,93.00
2022-09-25T07:57:52.321Z,92.90
2022-09-25T08:00:20.292Z,92.90
2022-09-25T08:02:57.879Z,92.90
2022-09-25T08:05:26.540Z,93.10
2022-09-25T08:07:54.671Z,92.80
2022-09-25T08:10:23.122Z,92.70
2022-09-25T08:12:52.457Z,92.70
2022-09-25T08:15:20.450Z,92.80
2022-09-25T08:17:48.364Z,92.70
2022-09-25T08:20:16.491Z,92.70
2022-09-25T08:22:44.500Z,92.60
2022-09-25T08:25:12.348Z,92.50
2022-09-25T08:27:41.010Z,92.40
2022-09-25T08:30:13.674Z,92.20
2022-09-25T08:32:41.833Z,92.10
2022-09-25T08:35:10.485Z,91.90
2022-09-25T08:37:42.644Z,92.00
2022-09-25T08:40:18.626Z,91.80
2022-09-25T08:42:50.315Z,91.40
2022-09-25T08:45:46.175Z,91.40
2022-09-25T08:48:39.157Z,90.80
2022-09-25T08:51:07.849Z,90.40
2022-09-25T08:53:36.959Z,90.10
2022-09-25T08:56:17.552Z,91.20
2022-09-25T08:58:51.529Z,90.00
2022-09-25T09:01:24.411Z,91.10
2022-09-25T09:03:58.608Z,90.20
2022-09-25T09:06:28.930Z,90.20
2022-09-25T09:09:01.252Z,89.50
2022-09-25T09:11:34.896Z,90.40
2022-09-25T09:14:05.645Z,88.90
2022-09-25T09:16:42.286Z,88.10
2022-09-25T09:19:12.563Z,88.40
2022-09-25T09:21:46.528Z,88.60
2022-09-25T09:24:17.977Z,88.40
2022-09-25T09:27:07.061Z,88.10
2022-09-25T09:30:04.495Z,87.50
2022-09-25T09:32:45.293Z,88.40
2022-09-25T09:35:22.494Z,88.70
2022-09-25T09:37:59.771Z,86.80
2022-09-25T09:40:41.384Z,86.70
2022-09-25T09:43:19.158Z,85.80
2022-09-25T09:45:53.028Z,85.50
2022-09-25T09:48:30.771Z,85.40
2022-09-25T09:51:04.263Z,85.10
2022-09-25T09:53:39.903Z,84.70
2022-09-25T09:56:14.781Z,87.00
2022-09-25T09:58:50.362Z,87.50
2022-09-25T10:01:40.335Z,86.10
2022-09-25T10:04:13.339Z,86.50
2022-09-25T10:06:46.184Z,86.40
2022-09-25T10:09:16.993Z,86.60
2022-09-25T10:11:47.966Z,86.30
2022-09-25T10:14:21.198Z,85.90
2022-09-25T10:16:50.931Z,86.40
2022-09-25T10:19:23.275Z,85.80
2022-09-25T10:21:54.708Z,88.10
2022-09-25T10:24:51.565Z,84.80
2022-09-25T10:27:37.721Z,84.90
2022-09-25T10:30:21.826Z,87.00
2022-09-25T10:32:58.548Z,85.40
2022-09-25T10:35:30.522Z,84.90
2022-09-25T10:38:01.387Z,84.70
2022-09-25T10:40:33.388Z,83.90
2022-09-25T10:43:07.982Z,83.30
2022-09-25T10:45:38.649Z,82.10
2022-09-25T10:48:45.418Z,82.60
2022-09-25T10:51:17.892Z,82.10
2022-09-25T10:53:46.807Z,80.90
2022-09-25T10:56:20.647Z,79.00
2022-09-25T10:58:52.625Z,79.60
2022-09-25T11:01:20.843Z,79.20
2022-09-25T11:03:53.402Z,78.90
2022-09-25T11:06:25.813Z,79.40
2022-09-25T11:09:07.701Z,79.60
2022-09-25T11:11:37.634Z,80.60
2022-09-25T11:14:08.403Z,78.80
2022-09-25T11:16:47.517Z,78.70
2022-09-25T11:19:19.923Z,77.90
2022-09-25T11:21:56.968Z,79.50
2022-09-25T11:24:32.253Z,78.50
2022-09-25T11:27:05.036Z,78.50
2022-09-25T11:29:41.012Z,77.00
2022-09-25T11:32:16.664Z,77.20
2022-09-25T11:34:59.252Z,78.30
2022-09-25T11:37:35.201Z,75.30
2022-09-25T11:40:35.573Z,75.50
2022-09-25T11:43:07.827Z,74.90
2022-09-25T11:45:40.429Z,74.70
2022-09-25T11:48:14.220Z,76.90
2022-09-25T11:50:50.599Z,75.40
2022-09-25T11:53:33.090Z,75.00
2022-09-25T11:56:15.107Z,73.00
2022-09-25T11:58:53.391Z,73.10
2022-09-25T12:01:32.556Z,72.20
2022-09-25T12:04:28.971Z,71.00
2022-09-25T12:07:06.750Z,71.30
2022-09-25T12:10:03.963Z,73.60
2022-09-25T12:12:39.533Z,70.50
2022-09-25T12:15:17.337Z,71.00
2022-09-25T12:17:56.941Z,71.30
2022-09-25T12:20:32.199Z,69.10
2022-09-25T12:23:14.148Z,70.60
2022-09-25T12:25:55.543Z,70.10
2022-09-25T12:28:36.240Z,69.30
2022-09-25T12:31:10.478Z,68.80
2022-09-25T12:33:46.529Z,68.00
2022-09-25T12:36:20.270Z,66.90
2022-09-25T12:38:55.418Z,68.80
2022-09-25T12:41:33.323Z,69.40
2022-09-25T12:44:07.117Z,68.10
2022-09-25T12:46:43.189Z,68.30
2022-09-25T12:49:15.296Z,67.70
2022-09-25T12:51:46.979Z,69.70
2022-09-25T12:54:24.827Z,68.00
2022-09-25T12:56:58.839Z,70.70
2022-09-25T12:59:33.854Z,68.00
2022-09-25T13:02:07.302Z,67.90
2022-09-25T13:04:58.535Z,67.70
2022-09-25T13:07:32.068Z,67.10
2022-09-25T13:10:00.856Z,67.10
2022-09-25T13:12:34.907Z,67.20
2022-09-25T13:15:07.483Z,66.90
2022-09-25T13:17:35.746Z,70.20
2022-09-25T13:20:37.735Z,66.00
2022-09-25T13:23:10.427Z,66.30
2022-09-25T13:25:43.296Z,65.00
2022-09-25T13:28:20.166Z,67.80
2022-09-25T13:31:09.348Z,66.10
2022-09-25T13:33:47.796Z,67.30
2022-09-25T13:36:36.955Z,66.70
2022-09-25T13:39:25.780Z,66.50
2022-09-25T13:41:57.781Z,66.90
2022-09-25T13:44:50.423Z,67.10
2022-09-25T13:47:43.541Z,66.90
2022-09-25T13:50:27.817Z,67.30
2022-09-25T13:53:21.894Z,66.50
2022-09-25T13:56:15.208Z,66.00
2022-09-25T13:59:22.595Z,66.00
2022-09-25T14:01:54.959Z,66.70
2022-09-25T14:04:38.511Z,69.20
2022-09-25T14:07:14.229Z,67.80
2022-09-25T14:09:46.988Z,68.50
2022-09-25T14:12:28.542Z,69.00
2022-09-25T14:15:01.703Z,68.40
2022-09-25T14:17:33.083Z,68.80
2022-09-25T14:20:04.429Z,69.00
2022-09-25T14:22:44.400Z,69.40
2022-09-25T14:25:36.467Z,69.30
2022-09-25T14:28:16.604Z,72.30
2022-09-25T14:31:14.398Z,69.30
2022-09-25T14:34:07.743Z,69.50
2022-09-25T14:36:49.156Z,69.50
2022-09-25T14:39:31.116Z,70.40
2022-09-25T14:42:24.934Z,69.80
2022-09-25T14:45:06.379Z,70.20
2022-09-25T14:47:38.252Z,71.60
2022-09-25T14:50:18.488Z,70.70
2022-09-25T14:52:48.412Z,70.90
2022-09-25T14:55:21.546Z,71.40
2022-09-25T14:57:50.503Z,71.40
2022-09-25T15:00:24.538Z,72.40
2022-09-25T15:02:56.004Z,71.90
2022-09-25T15:05:34.316Z,72.50
2022-09-25T15:08:03.442Z,73.00
2022-09-25T15:10:34.156Z,73.00
2022-09-25T15:13:11.813Z,73.10
2022-09-25T15:15:41.036Z,72.50
2022-09-25T15:18:13.502Z,72.60
2022-09-25T15:20:49.468Z,72.50
2022-09-25T15:23:21.066Z,71.80
2022-09-25T15:25:51.674Z,73.00
2022-09-25T15:28:22.267Z,72.20
2022-09-25T15:30:57.431Z,71.50
2022-09-25T15:33:29.214Z,70.10
2022-09-25T15:35:59.846Z,70.40
2022-09-25T15:38:31.701Z,70.10
2022-09-25T15:41:00.507Z,69.10
2022-09-25T15:43:29.927Z,70.50
2022-09-25T15:45:59.624Z,68.70
2022-09-25T15:48:31.285Z,68.10
2022-09-25T15:51:02.844Z,70.10
2022-09-25T15:53:33.531Z,67.40
2022-09-25T15:56:16.270Z,67.20
2022-09-25T15:58:47.869Z,66.00
2022-09-25T16:01:36.764Z,66.80
2022-09-25T16:04:25.657Z,66.80
2022-09-25T16:06:55.625Z,66.80
2022-09-25T16:09:31.282Z,66.90
2022-09-25T16:12:22.133Z,67.20
2022-09-25T16:14:51.014Z,67.10
2022-09-25T16:17:32.910Z,67.20
2022-09-25T16:20:03.494Z,67.00
2022-09-25T16:22:39.079Z,67.50
2022-09-25T16:25:21.911Z,69.00
2022-09-25T16:27:50.069Z,67.50
2022-09-25T16:30:19.879Z,68.00
2022-09-25T16:32:50.290Z,68.20
2022-09-25T16:35:25.977Z,69.90
2022-09-25T16:37:55.492Z,69.70
2022-09-25T16:40:33.553Z,68.50
2022-09-25T16:43:02.353Z,68.80
2022-09-25T16:45:33.966Z,69.30
2022-09-25T16:48:23.868Z,69.50
2022-09-25T16:50:51.811Z,69.60
2022-09-25T16:53:24.746Z,70.30
2022-09-25T16:55:53.711Z,69.80
2022-09-25T16:58:22.167Z,69.40
2022-09-25T17:00:50.633Z,69.20
2022-09-25T17:03:18.540Z,71.40
2022-09-25T17:05:46.435Z,69.30
2022-09-25T17:08:17.804Z,69.40
2022-09-25T17:10:49.256Z,69.30
2022-09-25T17:13:19.574Z,69.40
2022-09-25T17:15:47.644Z,68.60
2022-09-25T17:18:19.184Z,69.60
2022-09-25T17:20:47.330Z,70.00
2022-09-25T17:23:15.683Z,70.30
2022-09-25T17:25:48.098Z,70.30
2022-09-25T17:28:17.805Z,70.30
2022-09-25T17:30:46.338Z,70.20
2022-09-25T17:33:16.877Z,70.40
2022-09-25T17:35:49.165Z,72.60
2022-09-25T17:38:17.499Z,70.60
2022-09-25T17:40:47.965Z,70.50
2022-09-25T17:43:19.950Z,70.70
2022-09-25T17:45:50.632Z,71.80
2022-09-25T17:48:23.974Z,70.90
2022-09-25T17:50:52.622Z,71.00
2022-09-25T17:53:28.410Z,73.70
2022-09-25T17:55:57.062Z,71.50
2022-09-25T17:58:27.609Z,73.30
2022-09-25T18:00:57.595Z,73.30
2022-09-25T18:03:25.724Z,71.80
2022-09-25T18:05:53.681Z,71.40
2022-09-25T18:08:21.746Z,71.60
2022-09-25T18:10:52.850Z,71.80
2022-09-25T18:13:21.412Z,74.60
2022-09-25T18:15:54.167Z,73.50
2022-09-25T18:18:22.328Z,72.50
2022-09-25T18:21:09.538Z,76.00
2022-09-25T18:23:38.714Z,73.90
2022-09-25T18:26:09.290Z,73.50
2022-09-25T18:28:37.132Z,73.70
2022-09-25T18:31:07.289Z,73.40
2022-09-25T18:33:35.199Z,73.60
2022-09-25T18:36:03.241Z,73.60
2022-09-25T18:38:31.245Z,73.60
2022-09-25T18:41:02.138Z,73.80
2022-09-25T18:43:30.158Z,73.90
2022-09-25T18:45:58.238Z,73.90
2022-09-25T18:48:27.848Z,77.00
2022-09-25T18:50:55.692Z,74.00
2022-09-25T18:53:24.558Z,74.40
2022-09-25T18:55:54.452Z,74.00
2022-09-25T18:58:22.331Z,76.60
2022-09-25T19:00:50.886Z,76.00
2022-09-25T19:03:18.911Z,73.90
2022-09-25T19:05:57.047Z,74.20
2022-09-25T19:08:24.939Z,75.00
2022-09-25T19:10:52.780Z,74.20
2022-09-25T19:13:20.641Z,74.20
2022-09-25T19:15:48.574Z,75.40
2022-09-25T19:18:16.615Z,76.50
2022-09-25T19:20:54.382Z,76.30
2022-09-25T19:23:22.503Z,74.80
2022-09-25T19:25:55.094Z,74.50
2022-09-25T19:28:24.000Z,76.10
2022-09-25T19:30:59.423Z,74.90
2022-09-25T19:33:30.344Z,75.30
2022-09-25T19:36:00.888Z,75.30
2022-09-25T19:38:32.929Z,75.50
2022-09-25T19:41:01.021Z,75.60
2022-09-25T19:43:28.992Z,76.90
2022-09-25T19:45:57.376Z,78.50
2022-09-25T19:48:25.597Z,75.50
2022-09-25T19:50:53.482Z,75.60
2022-09-25T19:53:23.524Z,75.50
2022-09-25T19:55:52.416Z,75.70
2022-09-25T19:58:23.579Z,76.00
2022-09-25T20:00:53.337Z,76.10
2022-09-25T20:03:23.430Z,76.20
2022-09-25T20:05:51.605Z,76.20
2022-09-25T20:08:19.458Z,76.10
2022-09-25T20:10:48.655Z,76.00
2022-09-25T20:13:16.738Z,78.40
2022-09-25T20:15:47.511Z,75.70
2022-09-25T20:18:15.808Z,76.70
2022-09-25T20:20:44.260Z,75.80
2022-09-25T20:23:12.231Z,79.20
2022-09-25T20:25:40.120Z,75.50
2022-09-25T20:28:12.736Z,74.30
2022-09-25T20:30:40.684Z,76.00
2022-09-25T20:33:08.569Z,75.90
2022-09-25T20:35:36.436Z,75.90
2022-09-25T20:38:05.176Z,76.00
2022-09-25T20:40:33.184Z,76.30
2022-09-25T20:43:01.016Z,77.10
2022-09-25T20:45:30.242Z,76.40
2022-09-25T20:47:59.572Z,79.90
2022-09-25T20:50:27.487Z,76.90
2022-09-25T20:52:56.604Z,76.80
2022-09-25T20:55:24.367Z,76.90
2022-09-25T20:57:52.245Z,76.90
2022-09-25T21:00:20.140Z,77.20
2022-09-25T21:02:50.071Z,77.00
2022-09-25T21:05:17.928Z,77.50
2022-09-25T21:07:45.737Z,77.60
2022-09-25T21:10:15.529Z,77.60
2022-09-25T21:12:43.504Z,77.70
2022-09-25T21:15:11.377Z,79.00
2022-09-25T21:17:39.242Z,78.00
2022-09-25T21:20:09.250Z,77.90
2022-09-25T21:22:37.009Z,78.30
2022-09-25T21:25:05.410Z,78.20
2022-09-25T21:27:33.211Z,77.00
2022-09-25T21:30:01.332Z,79.50
2022-09-25T21:32:30.214Z,78.40
2022-09-25T21:34:58.037Z,78.40
2022-09-25T21:37:27.282Z,78.60
2022-09-25T21:39:55.136Z,78.60
2022-09-25T21:42:23.101Z,78.60
2022-09-25T21:44:51.168Z,78.50
2022-09-25T21:47:19.827Z,78.80
2022-09-25T21:49:47.711Z,78.90
2022-09-25T21:52:15.776Z,78.70
2022-09-25T21:54:45.115Z,78.80
2022-09-25T21:57:12.952Z,82.10
2022-09-25T21:59:41.355Z,78.90
2022-09-25T22:02:09.789Z,79.10
2022-09-25T22:04:37.680Z,79.10
2022-09-25T22:07:05.927Z,81.00
2022-09-25T22:09:33.876Z,79.50
2022-09-25T22:12:03.228Z,79.10
2022-09-25T22:14:31.093Z,79.00
2022-09-25T22:16:59.021Z,79.00
2022-09-25T22:19:29.140Z,78.90
2022-09-25T22:21:58.831Z,82.70
2022-09-25T22:24:27.551Z,79.30
2022-09-25T22:26:56.795Z,79.20
2022-09-25T22:29:26.450Z,79.20
2022-09-25T22:31:54.445Z,79.00
2022-09-25T22:34:24.412Z,81.70
2022-09-25T22:36:58.131Z,79.30
2022-09-25T22:39:27.334Z,79.30
2022-09-25T22:41:55.839Z,79.10
2022-09-25T22:44:25.330Z,79.30
2022-09-25T22:46:53.236Z,81.10
2022-09-25T22:49:21.119Z,79.20
2022-09-25T22:51:49.147Z,81.80
2022-09-25T22:54:17.586Z,79.40
2022-09-25T22:56:45.516Z,79.50
2022-09-25T22:59:16.217Z,81.90
2022-09-25T23:01:48.018Z,81.30
2022-09-25T23:04:18.775Z,79.60
2022-09-25T23:06:47.035Z,79.60
2022-09-25T23:09:18.935Z,79.60
2022-09-25T23:11:46.832Z,79.70
2022-09-25T23:14:19.682Z,79.60
2022-09-25T23:16:50.657Z,81.20
2022-09-25T23:19:19.618Z,80.00
2022-09-25T23:21:47.619Z,80.20
2022-09-25T23:24:17.328Z,80.10
2022-09-25T23:26:45.449Z,80.40
2022-09-25T23:29:14.610Z,80.40
2022-09-25T23:31:43.042Z,80.60
2022-09-25T23:34:13.008Z,80.70
2022-09-25T23:36:41.115Z,80.80
2022-09-25T23:39:11.430Z,80.70
2022-09-25T23:41:40.425Z,81.00
2022-09-25T23:44:10.161Z,83.80
2022-09-25T23:46:41.051Z,81.30
2022-09-25T23:49:09.649Z,81.30
2022-09-25T23:51:39.227Z,81.40
2022-09-25T23:54:07.210Z,81.30
2022-09-25T23:56:36.646Z,81.30
2022-09-25T23:59:05.701Z,81.80
